Terminal Aerodrome Forecast
Issued by NWS

Home | Current Version | Previous Version | Text Only | Print | Product List | Glossary On
Versions: 1 2 3 4 5 6 7 8 9 10 11 12 13 14 15 16 17 18 19
000
FTUS41 KALY 211700 RRA
TAFPSF
TAF
KPSF 211747Z 2118/2218 19010G18KT P6SM VCSH SCT025 BKN035
      TEMPO 2118/2121 BKN025
     FM220000 20007KT P6SM BKN040 BKN080
     FM220300 22006KT P6SM VCSH BKN025 BKN050
     FM220600 25007KT 4SM BR BKN015 OVC025
     FM221200 27010G20KT P6SM SCT025 BKN040
     FM221500 29014G24KT P6SM SCT035 BKN050=

USA.gov is the U.S. government's official web portal to all federal, state and local government web resources and services.